createdAt,value
2022-08-11T00:00:58.510Z,53.78
2022-08-11T00:01:58.760Z,53.63
2022-08-11T00:02:58.820Z,53.72
2022-08-11T00:03:58.866Z,53.76
2022-08-11T00:04:58.969Z,53.79
2022-08-11T00:05:59.089Z,54.05
2022-08-11T00:06:59.269Z,53.94
2022-08-11T00:07:59.441Z,53.90
2022-08-11T00:08:59.439Z,53.86
2022-08-11T00:09:59.548Z,53.64
2022-08-11T00:10:59.649Z,54.05
2022-08-11T00:11:59.907Z,54.23
2022-08-11T00:12:59.891Z,54.19
2022-08-11T00:14:00.027Z,54.12
2022-08-11T00:15:00.184Z,54.41
2022-08-11T00:16:00.347Z,54.29
2022-08-11T00:17:00.477Z,54.30
2022-08-11T00:18:00.586Z,54.25
2022-08-11T00:19:00.705Z,54.40
2022-08-11T00:20:12.750Z,54.57
2022-08-11T00:21:01.926Z,54.64
2022-08-11T00:22:04.707Z,54.83
2022-08-11T00:23:02.239Z,55.33
2022-08-11T00:24:01.269Z,55.02
2022-08-11T00:25:02.559Z,54.94
2022-08-11T00:26:01.498Z,54.96
2022-08-11T00:27:01.706Z,55.31
2022-08-11T00:28:01.837Z,55.30
2022-08-11T00:29:01.915Z,55.35
2022-08-11T00:30:02.046Z,55.53
2022-08-11T00:31:04.260Z,55.42
2022-08-11T00:32:02.224Z,55.48
2022-08-11T00:33:02.522Z,55.55
2022-08-11T00:34:02.524Z,55.59
2022-08-11T00:35:55.472Z,55.35
2022-08-11T00:36:03.763Z,55.38
2022-08-11T00:37:02.844Z,55.43
2022-08-11T00:38:03.114Z,55.40
2022-08-11T00:39:03.188Z,55.63
2022-08-11T00:40:03.379Z,55.75
2022-08-11T00:41:03.283Z,55.78
2022-08-11T00:42:03.383Z,55.97
2022-08-11T00:43:03.494Z,55.95
2022-08-11T00:44:03.742Z,55.84
2022-08-11T00:45:03.764Z,56.00
2022-08-11T00:46:03.863Z,55.98
2022-08-11T00:47:03.972Z,56.17
2022-08-11T00:48:04.082Z,56.23
2022-08-11T00:49:04.272Z,56.42
2022-08-11T00:50:04.392Z,56.60
2022-08-11T00:51:04.440Z,56.51
2022-08-11T00:52:06.435Z,56.62
2022-08-11T00:53:04.672Z,56.51
2022-08-11T00:54:04.880Z,56.52
2022-08-11T00:55:04.880Z,56.59
2022-08-11T00:56:04.984Z,56.79
2022-08-11T00:57:05.082Z,56.88
2022-08-11T00:58:06.202Z,57.05
2022-08-11T00:59:05.470Z,57.17
2022-08-11T01:00:06.531Z,57.55
2022-08-11T01:01:05.629Z,57.26
2022-08-11T01:02:05.670Z,57.23
2022-08-11T01:03:05.780Z,57.24
2022-08-11T01:04:05.970Z,57.25
2022-08-11T01:05:06.141Z,57.34
2022-08-11T01:06:08.095Z,57.22
2022-08-11T01:07:06.257Z,57.50
2022-08-11T01:08:06.383Z,57.49
2022-08-11T01:09:06.579Z,57.53
2022-08-11T01:10:07.454Z,57.79
2022-08-11T01:11:06.722Z,57.94
2022-08-11T01:12:06.829Z,57.97
2022-08-11T01:13:08.561Z,58.04
2022-08-11T01:14:07.109Z,58.29
2022-08-11T01:15:07.296Z,58.19
2022-08-11T01:16:08.917Z,58.29
2022-08-11T01:17:09.755Z,58.47
2022-08-11T01:18:07.518Z,58.75
2022-08-11T01:19:07.677Z,58.85
2022-08-11T01:20:47.431Z,58.71
2022-08-11T01:21:08.896Z,59.09
2022-08-11T01:22:08.026Z,59.23
2022-08-11T01:23:08.178Z,59.29
2022-08-11T01:24:08.317Z,59.35
2022-08-11T01:25:08.461Z,59.72
2022-08-11T01:26:08.675Z,59.36
2022-08-11T01:27:19.030Z,59.25
2022-08-11T01:28:09.784Z,59.03
2022-08-11T01:29:08.933Z,59.59
2022-08-11T01:30:09.115Z,59.35
2022-08-11T01:31:09.274Z,59.27
2022-08-11T01:32:09.265Z,59.27
2022-08-11T01:33:09.412Z,59.23
2022-08-11T01:34:09.563Z,59.18
2022-08-11T01:35:09.754Z,59.24
2022-08-11T01:36:09.807Z,59.58
2022-08-11T01:37:09.914Z,59.61
2022-08-11T01:38:10.024Z,59.58
2022-08-11T01:39:10.257Z,59.59
2022-08-11T01:40:10.933Z,59.57
2022-08-11T01:41:10.463Z,59.70
2022-08-11T01:42:10.573Z,59.71
2022-08-11T01:43:10.682Z,59.74
2022-08-11T01:44:13.085Z,59.72
2022-08-11T01:45:10.876Z,59.77
2022-08-11T01:46:11.103Z,59.67
2022-08-11T01:47:11.144Z,59.68
2022-08-11T01:48:11.233Z,59.54
2022-08-11T01:50:07.106Z,59.69
2022-08-11T01:50:12.602Z,60.06
2022-08-11T01:51:16.812Z,60.13
2022-08-11T01:52:12.761Z,60.08
2022-08-11T01:53:11.841Z,60.08
2022-08-11T01:54:12.012Z,59.88
2022-08-11T01:55:12.211Z,59.88
2022-08-11T01:56:12.279Z,59.96
2022-08-11T01:57:12.381Z,60.02
2022-08-11T01:58:12.501Z,60.06
2022-08-11T01:59:12.601Z,60.20
2022-08-11T02:00:12.761Z,60.21
2022-08-11T02:01:12.924Z,60.27
2022-08-11T02:02:20.550Z,60.32
2022-08-11T02:03:14.022Z,60.47
2022-08-11T02:04:15.649Z,60.69
2022-08-11T02:05:13.662Z,60.87
2022-08-11T02:06:13.387Z,60.95
2022-08-11T02:07:13.480Z,61.04
2022-08-11T02:08:13.637Z,60.96
2022-08-11T02:09:13.789Z,61.10
2022-08-11T02:10:14.006Z,61.28
2022-08-11T02:11:14.157Z,61.34
2022-08-11T02:12:14.095Z,61.40
2022-08-11T02:13:14.241Z,61.36
2022-08-11T02:14:14.409Z,61.37
2022-08-11T02:15:14.798Z,61.40
2022-08-11T02:16:14.636Z,61.64
2022-08-11T02:17:14.729Z,61.75
2022-08-11T02:18:14.877Z,61.81
2022-08-11T02:19:15.018Z,61.84
2022-08-11T02:20:15.323Z,61.92
2022-08-11T02:21:15.429Z,61.97
2022-08-11T02:22:15.446Z,61.93
2022-08-11T02:23:58.751Z,62.21
2022-08-11T02:24:16.675Z,62.13
2022-08-11T02:25:17.097Z,62.11
2022-08-11T02:26:15.964Z,62.13
2022-08-11T02:27:16.057Z,62.37
2022-08-11T02:28:16.167Z,62.40
2022-08-11T02:29:16.265Z,62.37
2022-08-11T02:30:16.419Z,62.34
2022-08-11T02:32:11.076Z,62.19
2022-08-11T02:32:33.800Z,62.17
2022-08-11T02:33:17.694Z,62.42
2022-08-11T02:34:16.775Z,62.48
2022-08-11T02:35:17.067Z,62.40
2022-08-11T02:36:17.069Z,62.46
2022-08-11T02:37:22.045Z,62.60
2022-08-11T02:38:18.304Z,62.69
2022-08-11T02:39:17.466Z,62.80
2022-08-11T02:40:17.524Z,62.91
2022-08-11T02:41:17.713Z,63.02
2022-08-11T02:42:32.025Z,63.09
2022-08-11T02:43:18.874Z,63.17
2022-08-11T02:44:18.003Z,63.17
2022-08-11T02:45:18.174Z,63.14
2022-08-11T02:46:18.723Z,63.20
2022-08-11T02:47:18.422Z,63.26
2022-08-11T02:48:18.523Z,63.37
2022-08-11T02:49:18.622Z,63.37
2022-08-11T02:50:18.713Z,63.41
2022-08-11T02:51:22.111Z,63.46
2022-08-11T02:52:19.141Z,63.61
2022-08-11T02:53:19.080Z,63.69
2022-08-11T02:54:19.211Z,63.72
2022-08-11T02:55:44.664Z,63.71
2022-08-11T02:56:20.511Z,63.90
2022-08-11T02:57:19.680Z,64.10
2022-08-11T02:58:19.877Z,64.24
2022-08-11T02:59:20.839Z,64.25
2022-08-11T03:00:19.984Z,64.33
2022-08-11T03:01:20.141Z,64.43
2022-08-11T03:02:20.339Z,64.42
2022-08-11T03:03:20.378Z,64.30
2022-08-11T03:04:20.441Z,64.29
2022-08-11T03:05:20.519Z,63.99
2022-08-11T03:06:20.658Z,64.07
2022-08-11T03:07:29.130Z,64.20
2022-08-11T03:08:21.898Z,64.18
2022-08-11T03:09:21.020Z,64.25
2022-08-11T03:10:21.171Z,64.41
2022-08-11T03:11:21.317Z,64.43
2022-08-11T03:12:21.420Z,64.47
2022-08-11T03:13:21.539Z,64.61
2022-08-11T03:14:21.649Z,64.74
2022-08-11T03:15:21.737Z,64.72
2022-08-11T03:16:21.856Z,64.80
2022-08-11T03:17:21.937Z,64.78
2022-08-11T03:18:22.208Z,64.88
2022-08-11T03:19:22.306Z,64.91
2022-08-11T03:20:22.356Z,64.93
2022-08-11T03:21:23.580Z,65.19
2022-08-11T03:22:22.566Z,65.03
2022-08-11T03:23:22.716Z,65.07
2022-08-11T03:24:22.976Z,65.21
2022-08-11T03:25:22.921Z,65.08
2022-08-11T03:26:23.055Z,64.98
2022-08-11T03:27:23.195Z,64.93
2022-08-11T03:28:23.310Z,65.03
2022-08-11T03:29:25.224Z,65.20
2022-08-11T03:30:23.538Z,65.69
2022-08-11T03:31:23.660Z,65.44
2022-08-11T03:32:23.735Z,65.23
2022-08-11T03:33:23.874Z,65.23
2022-08-11T03:34:24.086Z,65.63
2022-08-11T03:35:24.116Z,65.41
2022-08-11T03:36:24.335Z,65.21
2022-08-11T03:37:24.394Z,65.09
2022-08-11T03:38:24.523Z,65.24
2022-08-11T03:39:25.695Z,65.66
2022-08-11T03:40:24.721Z,65.71
2022-08-11T03:42:01.281Z,65.77
2022-08-11T03:42:25.950Z,65.95
2022-08-11T03:43:25.197Z,65.75
2022-08-11T03:44:25.252Z,65.75
2022-08-11T03:45:25.414Z,65.79
2022-08-11T03:46:25.524Z,66.06
2022-08-11T03:47:25.605Z,66.04
2022-08-11T03:48:25.734Z,66.19
2022-08-11T03:49:25.872Z,66.25
2022-08-11T03:50:26.693Z,66.30
2022-08-11T03:51:26.146Z,66.16
2022-08-11T03:52:27.310Z,66.12
2022-08-11T03:53:26.399Z,65.96
2022-08-11T03:54:26.510Z,65.80
2022-08-11T03:55:26.659Z,66.02
2022-08-11T03:56:26.825Z,65.97
2022-08-11T03:57:26.932Z,66.27
2022-08-11T03:58:27.087Z,66.35
2022-08-11T03:59:27.180Z,66.24
2022-08-11T04:00:27.327Z,66.57
2022-08-11T04:01:27.564Z,66.27
2022-08-11T04:02:27.526Z,66.50
2022-08-11T04:03:31.423Z,66.12
2022-08-11T04:04:27.788Z,66.17
2022-08-11T04:05:27.879Z,66.29
2022-08-11T04:06:28.093Z,66.48
2022-08-11T04:07:28.118Z,66.43
2022-08-11T04:08:34.233Z,66.34
2022-08-11T04:09:29.387Z,66.21
2022-08-11T04:10:28.498Z,66.32
2022-08-11T04:11:28.667Z,66.48
2022-08-11T04:12:36.744Z,66.50
2022-08-11T04:13:29.843Z,66.62
2022-08-11T04:14:28.915Z,66.79
2022-08-11T04:15:29.066Z,66.62
2022-08-11T04:16:29.254Z,66.46
2022-08-11T04:17:29.430Z,66.41
2022-08-11T04:18:29.397Z,66.26
2022-08-11T04:19:29.632Z,66.48
2022-08-11T04:20:29.666Z,66.43
2022-08-11T04:21:29.826Z,66.49
2022-08-11T04:22:29.998Z,66.66
2022-08-11T04:24:33.096Z,66.75
2022-08-11T04:24:38.701Z,66.92
2022-08-11T04:25:31.264Z,67.16
2022-08-11T04:26:30.416Z,67.12
2022-08-11T04:27:37.707Z,67.22
2022-08-11T04:28:31.593Z,67.10
2022-08-11T04:29:36.381Z,67.23
2022-08-11T04:30:31.847Z,67.12
2022-08-11T04:31:44.033Z,67.00
2022-08-11T04:32:32.066Z,67.21
2022-08-11T04:33:34.365Z,67.08
2022-08-11T04:34:31.361Z,67.23
2022-08-11T04:35:31.390Z,67.37
2022-08-11T04:36:31.555Z,67.15
2022-08-11T04:37:31.772Z,67.06
2022-08-11T04:38:31.772Z,67.22
2022-08-11T04:39:31.966Z,67.40
2022-08-11T04:40:31.991Z,67.58
2022-08-11T04:41:32.172Z,67.48
2022-08-11T04:42:32.375Z,67.46
2022-08-11T04:43:32.382Z,67.10
2022-08-11T04:44:32.659Z,66.61
2022-08-11T04:45:32.582Z,66.72
2022-08-11T04:46:32.729Z,65.96
2022-08-11T04:47:32.878Z,65.58
2022-08-11T04:48:33.931Z,65.64
2022-08-11T04:49:33.668Z,65.53
2022-08-11T04:50:33.297Z,64.92
2022-08-11T04:51:33.314Z,64.48
2022-08-11T04:52:36.037Z,65.24
2022-08-11T04:53:34.518Z,64.69
2022-08-11T04:54:33.690Z,64.69
2022-08-11T04:55:33.859Z,64.30
2022-08-11T04:56:33.868Z,64.27
2022-08-11T04:57:34.024Z,64.32
2022-08-11T04:58:34.138Z,63.83
2022-08-11T04:59:34.310Z,63.66
2022-08-11T05:00:34.426Z,63.50
2022-08-11T05:01:37.394Z,63.33
2022-08-11T05:02:34.759Z,63.41
2022-08-11T05:03:34.766Z,63.85
2022-08-11T05:04:34.878Z,64.37
2022-08-11T05:05:34.961Z,64.46
2022-08-11T05:06:35.157Z,63.73
2022-08-11T05:07:35.361Z,62.76
2022-08-11T05:08:35.388Z,62.46
2022-08-11T05:09:35.466Z,62.21
2022-08-11T05:10:39.950Z,62.11
2022-08-11T05:11:37.666Z,62.55
2022-08-11T05:12:35.806Z,62.77
2022-08-11T05:13:35.895Z,61.91
2022-08-11T05:14:36.065Z,62.48
2022-08-11T05:15:42.417Z,62.40
2022-08-11T05:16:37.374Z,61.78
2022-08-11T05:17:36.409Z,62.32
2022-08-11T05:18:36.535Z,62.64
2022-08-11T05:19:36.634Z,62.55
2022-08-11T05:20:36.821Z,61.81
2022-08-11T05:21:45.540Z,61.71
2022-08-11T05:22:38.209Z,61.91
2022-08-11T05:23:37.094Z,62.34
2022-08-11T05:24:37.186Z,61.85
2022-08-11T05:26:42.908Z,62.45
2022-08-11T05:26:46.017Z,62.71
2022-08-11T05:27:38.612Z,62.64
2022-08-11T05:28:37.863Z,63.29
2022-08-11T05:29:37.853Z,63.24
2022-08-11T05:30:38.003Z,65.17
2022-08-11T05:31:38.112Z,63.56
2022-08-11T05:32:38.463Z,64.77
2022-08-11T05:33:38.502Z,63.64
2022-08-11T05:34:38.491Z,64.40
2022-08-11T05:36:00.347Z,63.92
2022-08-11T05:36:39.772Z,63.11
2022-08-11T05:37:38.910Z,63.02
2022-08-11T05:38:39.232Z,64.01
2022-08-11T05:39:39.153Z,64.77
2022-08-11T05:40:39.243Z,65.43
2022-08-11T05:41:39.341Z,65.66
2022-08-11T05:42:39.572Z,64.77
2022-08-11T05:43:39.730Z,63.04
2022-08-11T05:44:40.710Z,63.80
2022-08-11T05:45:57.263Z,62.41
2022-08-11T05:46:40.980Z,62.87
2022-08-11T05:47:40.150Z,63.33
2022-08-11T05:48:40.339Z,61.67
2022-08-11T05:49:40.350Z,62.30
2022-08-11T05:50:40.449Z,63.00
2022-08-11T05:51:55.024Z,62.78
2022-08-11T05:52:42.032Z,60.99
2022-08-11T05:53:46.130Z,61.15
2022-08-11T05:54:42.112Z,59.01
2022-08-11T05:56:01.940Z,58.20
2022-08-11T05:56:42.208Z,58.36
2022-08-11T05:57:51.382Z,57.83
2022-08-11T05:58:43.167Z,55.25
2022-08-11T05:59:41.598Z,55.97
2022-08-11T06:00:41.758Z,54.43
2022-08-11T06:01:41.869Z,55.89
2022-08-11T06:02:41.953Z,56.62
2022-08-11T06:03:42.057Z,56.45
2022-08-11T06:04:43.187Z,56.34
2022-08-11T06:05:43.593Z,56.23
2022-08-11T06:06:45.512Z,56.43
2022-08-11T06:07:48.705Z,56.51
2022-08-11T06:08:43.667Z,56.62
2022-08-11T06:09:42.767Z,57.61
2022-08-11T06:10:42.958Z,56.33
2022-08-11T06:11:44.957Z,55.84
2022-08-11T06:12:43.119Z,55.35
2022-08-11T06:13:43.214Z,55.97
2022-08-11T06:14:43.355Z,55.70
2022-08-11T06:15:43.657Z,55.36
2022-08-11T06:16:43.688Z,54.15
2022-08-11T06:17:43.786Z,53.37
2022-08-11T06:18:43.895Z,51.88
2022-08-11T06:19:44.015Z,52.97
2022-08-11T06:20:44.215Z,50.35
2022-08-11T06:21:44.355Z,50.93
2022-08-11T06:22:44.415Z,49.04
2022-08-11T06:23:44.514Z,49.43
2022-08-11T06:24:44.694Z,50.28
2022-08-11T06:25:44.828Z,51.03
2022-08-11T06:27:09.032Z,51.48
2022-08-11T06:27:46.020Z,48.44
2022-08-11T06:28:45.139Z,49.04
2022-08-11T06:29:48.018Z,48.61
2022-08-11T06:30:46.443Z,47.48
2022-08-11T06:31:45.486Z,46.98
2022-08-11T06:32:45.583Z,47.16
2022-08-11T06:33:45.696Z,48.14
2022-08-11T06:34:45.794Z,46.34
2022-08-11T06:35:46.154Z,48.15
2022-08-11T06:36:46.053Z,47.29
2022-08-11T06:37:46.173Z,47.98
2022-08-11T06:38:46.285Z,46.86
2022-08-11T06:39:46.463Z,46.02
2022-08-11T06:40:46.751Z,45.58
2022-08-11T06:41:46.683Z,47.56
2022-08-11T06:42:46.744Z,45.01
2022-08-11T06:43:55.649Z,44.41
2022-08-11T06:44:47.972Z,44.88
2022-08-11T06:45:47.121Z,46.47
2022-08-11T06:46:47.183Z,45.30
2022-08-11T06:47:47.444Z,46.15
2022-08-11T06:48:47.422Z,44.27
2022-08-11T06:49:47.522Z,44.07
2022-08-11T06:50:47.673Z,44.43
2022-08-11T06:51:47.792Z,43.37
2022-08-11T06:52:48.153Z,43.20
2022-08-11T06:54:03.103Z,42.73
2022-08-11T06:54:49.153Z,42.44
2022-08-11T06:55:57.706Z,42.58
2022-08-11T06:56:57.498Z,42.54
2022-08-11T06:57:49.581Z,41.36
2022-08-11T06:58:48.732Z,43.20
2022-08-11T06:59:48.841Z,42.25
2022-08-11T07:00:48.950Z,41.53
2022-08-11T07:01:49.655Z,42.26
2022-08-11T07:02:49.195Z,41.46
2022-08-11T07:03:49.304Z,41.15
2022-08-11T07:04:49.428Z,41.17
2022-08-11T07:05:49.551Z,41.32
2022-08-11T07:06:50.436Z,40.62
2022-08-11T07:07:49.791Z,39.50
2022-08-11T07:08:49.953Z,40.32
2022-08-11T07:09:50.061Z,40.15
2022-08-11T07:10:50.160Z,41.00
2022-08-11T07:11:50.372Z,39.73
2022-08-11T07:12:50.533Z,40.89
2022-08-11T07:13:50.532Z,40.42
2022-08-11T07:14:50.632Z,38.65
2022-08-11T07:16:11.010Z,39.08
2022-08-11T07:16:51.912Z,39.55
2022-08-11T07:17:51.101Z,40.35
2022-08-11T07:18:51.258Z,39.54
2022-08-11T07:19:51.259Z,40.59
2022-08-11T07:20:52.375Z,41.71
2022-08-11T07:22:01.757Z,39.40
2022-08-11T07:22:52.800Z,42.59
2022-08-11T07:23:51.781Z,36.90
2022-08-11T07:24:59.474Z,40.00
2022-08-11T07:25:53.038Z,38.16
2022-08-11T07:26:52.230Z,37.01
2022-08-11T07:27:52.340Z,38.30
2022-08-11T07:28:52.491Z,37.30
2022-08-11T07:29:52.588Z,37.57
2022-08-11T07:30:54.099Z,35.81
2022-08-11T07:31:52.870Z,39.15
2022-08-11T07:32:52.966Z,38.45
2022-08-11T07:34:07.557Z,35.84
2022-08-11T07:34:54.230Z,35.75
2022-08-11T07:35:53.311Z,36.17
2022-08-11T07:36:53.491Z,35.57
2022-08-11T07:38:01.664Z,36.34
2022-08-11T07:38:54.776Z,36.33
2022-08-11T07:39:53.832Z,35.50
2022-08-11T07:40:53.929Z,36.31
2022-08-11T07:41:54.058Z,35.90
2022-08-11T07:42:54.165Z,35.50
2022-08-11T07:43:54.269Z,36.52
2022-08-11T07:44:54.442Z,35.45
2022-08-11T07:45:54.497Z,35.52
2022-08-11T07:46:54.608Z,36.99
2022-08-11T07:47:54.706Z,36.01
2022-08-11T07:48:55.049Z,34.03
2022-08-11T07:49:55.002Z,33.44
2022-08-11T07:50:56.187Z,34.69
2022-08-11T07:51:55.231Z,34.18
2022-08-11T07:52:55.337Z,34.16
2022-08-11T07:53:58.344Z,34.14
2022-08-11T07:54:56.577Z,33.17
2022-08-11T07:55:55.736Z,33.39
2022-08-11T07:57:09.332Z,33.44
2022-08-11T07:58:15.348Z,33.83
2022-08-11T07:59:04.279Z,34.61
2022-08-11T07:59:58.587Z,33.30
2022-08-11T08:01:01.076Z,34.85
2022-08-11T08:01:56.577Z,34.16
2022-08-11T08:02:56.617Z,33.27
2022-08-11T08:03:56.727Z,34.60
2022-08-11T08:04:56.937Z,32.75
2022-08-11T08:05:56.951Z,33.26
2022-08-11T08:06:57.046Z,34.90
2022-08-11T08:07:57.174Z,32.41
2022-08-11T08:08:57.277Z,35.43
2022-08-11T08:09:57.526Z,36.23
2022-08-11T08:10:57.516Z,33.93
2022-08-11T08:11:57.677Z,32.56
2022-08-11T08:12:57.766Z,33.69
2022-08-11T08:13:57.914Z,31.43
2022-08-11T08:14:58.153Z,30.77
2022-08-11T08:15:58.216Z,31.96
2022-08-11T08:16:58.377Z,35.40
2022-08-11T08:18:09.629Z,30.65
2022-08-11T08:18:59.536Z,30.20
2022-08-11T08:19:58.696Z,31.09
2022-08-11T08:20:58.793Z,30.83
2022-08-11T08:22:10.921Z,30.55
2022-08-11T08:23:00.065Z,31.11
2022-08-11T08:23:59.196Z,33.23
2022-08-11T08:24:59.362Z,31.76
2022-08-11T08:25:59.455Z,31.78
2022-08-11T08:27:00.155Z,30.51
2022-08-11T08:27:59.753Z,32.75
2022-08-11T08:28:59.901Z,31.12
2022-08-11T08:30:00.053Z,31.30
2022-08-11T08:31:00.147Z,32.66
2022-08-11T08:32:00.381Z,30.80
2022-08-11T08:33:00.438Z,29.10
2022-08-11T08:34:00.544Z,29.33
2022-08-11T08:35:00.669Z,31.29
2022-08-11T08:36:00.777Z,29.78
2022-08-11T08:37:01.026Z,30.02
2022-08-11T08:38:01.061Z,29.57
2022-08-11T08:39:01.154Z,29.56
2022-08-11T08:40:01.321Z,31.98
2022-08-11T08:41:01.433Z,29.54
2022-08-11T08:42:01.554Z,30.44
2022-08-11T08:43:01.762Z,29.29
2022-08-11T08:44:21.121Z,29.46
2022-08-11T08:45:02.900Z,29.52
2022-08-11T08:46:02.001Z,31.26
2022-08-11T08:47:02.173Z,30.92
2022-08-11T08:48:02.382Z,29.30
2022-08-11T08:49:02.392Z,29.37
2022-08-11T08:50:02.606Z,29.17
2022-08-11T08:51:02.631Z,29.49
2022-08-11T08:52:26.307Z,28.87
2022-08-11T08:53:03.870Z,29.59
2022-08-11T08:54:02.971Z,30.51
2022-08-11T08:55:03.141Z,28.84
2022-08-11T08:56:03.397Z,29.75
2022-08-11T08:57:03.354Z,29.06
2022-08-11T08:58:03.450Z,28.80
2022-08-11T08:59:03.619Z,28.38
2022-08-11T09:00:03.800Z,28.17
2022-08-11T09:01:03.871Z,27.52
2022-08-11T09:02:03.958Z,28.04
2022-08-11T09:03:22.882Z,28.65
2022-08-11T09:04:11.466Z,28.46
2022-08-11T09:05:05.435Z,29.54
2022-08-11T09:06:04.500Z,28.20
2022-08-11T09:07:04.659Z,28.66
2022-08-11T09:08:04.668Z,29.11
2022-08-11T09:09:04.775Z,27.86
2022-08-11T09:10:04.903Z,27.85
2022-08-11T09:11:05.109Z,29.03
2022-08-11T09:12:05.139Z,28.20
2022-08-11T09:13:05.239Z,29.15
2022-08-11T09:14:08.393Z,28.30
2022-08-11T09:15:06.537Z,28.13
2022-08-11T09:16:05.628Z,27.32
2022-08-11T09:17:05.786Z,28.15
2022-08-11T09:18:05.885Z,27.06
2022-08-11T09:19:06.031Z,27.69
2022-08-11T09:20:06.197Z,26.63
2022-08-11T09:21:06.318Z,27.63
2022-08-11T09:22:06.500Z,27.26
2022-08-11T09:24:12.822Z,27.88
2022-08-11T09:25:07.765Z,26.89
2022-08-11T09:26:06.894Z,26.64
2022-08-11T09:27:07.026Z,27.83
2022-08-11T09:28:07.113Z,26.82
2022-08-11T09:29:07.278Z,27.31
2022-08-11T09:30:07.382Z,28.89
2022-08-11T09:31:07.564Z,27.11
2022-08-11T09:32:07.608Z,27.47
2022-08-11T09:33:07.731Z,27.78
2022-08-11T09:34:07.805Z,26.79
2022-08-11T09:35:07.955Z,26.67
2022-08-11T09:36:08.766Z,26.82
2022-08-11T09:37:08.286Z,26.44
2022-08-11T09:38:08.403Z,25.01
2022-08-11T09:39:08.563Z,24.93
2022-08-11T09:40:08.603Z,25.83
2022-08-11T09:41:08.713Z,25.05
2022-08-11T09:42:11.385Z,25.93
2022-08-11T09:43:09.932Z,25.74
2022-08-11T09:44:09.079Z,25.71
2022-08-11T09:45:09.212Z,25.69
2022-08-11T09:46:09.304Z,25.41
2022-08-11T09:47:09.422Z,25.67
2022-08-11T09:48:09.534Z,25.06
2022-08-11T09:49:09.611Z,25.57
2022-08-11T09:50:09.832Z,25.66
2022-08-11T09:51:09.910Z,25.44
2022-08-11T09:52:10.030Z,26.07
2022-08-11T09:53:36.306Z,25.41
2022-08-11T09:54:11.240Z,25.52
2022-08-11T09:55:10.631Z,26.02
2022-08-11T09:56:10.510Z,24.68
2022-08-11T09:57:10.627Z,24.79
2022-08-11T09:58:10.830Z,25.31
2022-08-11T09:59:10.890Z,26.47
2022-08-11T10:00:13.106Z,26.24
2022-08-11T10:01:11.168Z,26.79
2022-08-11T10:02:11.249Z,25.43
2022-08-11T10:03:11.418Z,25.31
2022-08-11T10:04:11.470Z,24.15
2022-08-11T10:05:11.598Z,24.88
2022-08-11T10:06:11.716Z,24.99
2022-08-11T10:07:11.827Z,24.51
2022-08-11T10:08:12.039Z,24.29
2022-08-11T10:09:12.187Z,24.08
2022-08-11T10:10:12.188Z,24.46
2022-08-11T10:11:12.347Z,23.81
2022-08-11T10:12:12.476Z,24.57
2022-08-11T10:13:44.073Z,23.56
2022-08-11T10:14:33.076Z,24.34
2022-08-11T10:15:13.818Z,24.74
2022-08-11T10:16:15.764Z,23.90
2022-08-11T10:17:13.025Z,24.01
2022-08-11T10:18:13.265Z,24.30
2022-08-11T10:19:13.385Z,23.62
2022-08-11T10:20:13.395Z,23.78
2022-08-11T10:21:13.541Z,25.04
2022-08-11T10:22:13.659Z,23.34
2022-08-11T10:23:13.773Z,23.33
2022-08-11T10:24:13.953Z,23.79
2022-08-11T10:25:13.992Z,23.75
2022-08-11T10:26:14.116Z,24.43
2022-08-11T10:27:14.212Z,23.66
2022-08-11T10:28:30.521Z,23.52
2022-08-11T10:29:15.880Z,23.80
2022-08-11T10:30:14.582Z,24.20
2022-08-11T10:31:14.700Z,23.70
2022-08-11T10:32:14.821Z,24.10
2022-08-11T10:33:18.985Z,23.96
2022-08-11T10:34:16.080Z,23.70
2022-08-11T10:35:15.160Z,23.44
2022-08-11T10:36:16.694Z,24.00
2022-08-11T10:37:15.429Z,23.53
2022-08-11T10:38:15.519Z,23.91
2022-08-11T10:39:15.898Z,24.54
2022-08-11T10:40:15.905Z,23.64
2022-08-11T10:41:15.879Z,23.94
2022-08-11T10:42:25.807Z,24.65
2022-08-11T10:44:01.208Z,24.30
2022-08-11T10:44:17.369Z,23.10
2022-08-11T10:45:16.408Z,23.38
2022-08-11T10:46:16.514Z,23.44
2022-08-11T10:47:16.640Z,24.32
2022-08-11T10:48:16.724Z,23.61
2022-08-11T10:49:16.841Z,23.68
2022-08-11T10:50:17.175Z,23.31
2022-08-11T10:51:17.066Z,22.83
2022-08-11T10:52:18.186Z,23.94
2022-08-11T10:53:17.344Z,23.10
2022-08-11T10:54:17.443Z,23.23
2022-08-11T10:55:17.705Z,22.81
2022-08-11T10:56:17.795Z,23.73
2022-08-11T10:57:17.844Z,23.48
2022-08-11T10:58:18.014Z,23.77
2022-08-11T10:59:18.104Z,24.73
2022-08-11T11:00:18.313Z,23.62
2022-08-11T11:01:18.467Z,23.32
2022-08-11T11:02:18.492Z,23.02
2022-08-11T11:03:23.036Z,23.32
2022-08-11T11:04:19.702Z,23.81
2022-08-11T11:05:18.865Z,23.81
2022-08-11T11:06:29.180Z,23.33
2022-08-11T11:07:20.274Z,23.24
2022-08-11T11:08:19.258Z,23.33
2022-08-11T11:09:19.384Z,23.12
2022-08-11T11:10:19.460Z,23.38
2022-08-11T11:11:19.822Z,23.46
2022-08-11T11:12:19.780Z,23.63
2022-08-11T11:13:19.897Z,23.85
2022-08-11T11:14:20.009Z,23.94
2022-08-11T11:15:20.101Z,23.43
2022-08-11T11:16:20.298Z,23.77
2022-08-11T11:17:20.517Z,25.89
2022-08-11T11:18:20.458Z,24.01
2022-08-11T11:19:20.610Z,23.47
2022-08-11T11:20:37.421Z,24.25
2022-08-11T11:21:21.968Z,23.33
2022-08-11T11:22:21.027Z,23.68
2022-08-11T11:23:21.119Z,23.23
2022-08-11T11:24:21.218Z,23.98
2022-08-11T11:25:21.325Z,23.86
2022-08-11T11:26:27.217Z,23.67
2022-08-11T11:27:22.604Z,24.01
2022-08-11T11:28:21.705Z,24.18
2022-08-11T11:29:21.867Z,22.73
2022-08-11T11:30:21.904Z,22.77
2022-08-11T11:31:22.004Z,21.74
2022-08-11T11:32:22.333Z,22.27
2022-08-11T11:33:22.273Z,21.72
2022-08-11T11:34:22.482Z,22.39
2022-08-11T11:35:22.502Z,23.07
2022-08-11T11:36:22.612Z,22.38
2022-08-11T11:37:22.843Z,22.15
2022-08-11T11:38:22.831Z,22.40
2022-08-11T11:39:23.002Z,22.59
2022-08-11T11:40:23.184Z,22.53
2022-08-11T11:41:24.171Z,23.33
2022-08-11T11:42:23.290Z,22.82
2022-08-11T11:43:23.451Z,23.03
2022-08-11T11:44:23.510Z,23.31
2022-08-11T11:45:24.351Z,22.84
2022-08-11T11:46:27.113Z,22.36
2022-08-11T11:47:24.848Z,22.31
2022-08-11T11:48:24.019Z,22.30
2022-08-11T11:50:24.238Z,22.58
2022-08-11T11:51:24.367Z,24.03
2022-08-11T11:52:24.477Z,24.15
2022-08-11T11:53:24.607Z,23.11
2022-08-11T11:54:24.705Z,23.15
2022-08-11T11:55:24.818Z,23.04
2022-08-11T11:56:25.555Z,22.38
2022-08-11T11:57:25.087Z,22.28
2022-08-11T11:58:25.438Z,22.40
2022-08-11T11:59:25.337Z,22.71
2022-08-11T12:00:25.447Z,22.41
2022-08-11T12:01:26.577Z,22.43
2022-08-11T12:02:25.834Z,23.39
2022-08-11T12:03:25.863Z,23.14
2022-08-11T12:04:26.026Z,22.61
2022-08-11T12:05:26.076Z,22.12
2022-08-11T12:06:26.175Z,22.39
2022-08-11T12:07:26.305Z,23.40
2022-08-11T12:08:27.899Z,24.54
2022-08-11T12:09:26.616Z,23.58
2022-08-11T12:10:26.674Z,22.86
2022-08-11T12:11:26.834Z,22.30
2022-08-11T12:12:26.943Z,21.88
2022-08-11T12:13:27.064Z,23.50
2022-08-11T12:14:27.234Z,22.42
2022-08-11T12:16:04.424Z,22.46
2022-08-11T12:16:34.074Z,22.48
2022-08-11T12:17:28.572Z,22.42
2022-08-11T12:18:27.643Z,22.55
2022-08-11T12:19:27.832Z,22.66
2022-08-11T12:20:31.791Z,22.24
2022-08-11T12:21:28.985Z,21.55
2022-08-11T12:22:28.086Z,22.00
2022-08-11T12:23:28.196Z,22.79
2022-08-11T12:24:29.434Z,24.17
2022-08-11T12:25:28.442Z,22.47
2022-08-11T12:26:28.542Z,22.04
2022-08-11T12:27:28.729Z,22.73
2022-08-11T12:28:29.154Z,22.83
2022-08-11T12:29:29.017Z,23.68
2022-08-11T12:30:29.050Z,22.64
2022-08-11T12:31:29.212Z,23.13
2022-08-11T12:32:29.358Z,22.59
2022-08-11T12:33:29.474Z,22.85
2022-08-11T12:34:29.511Z,23.97
2022-08-11T12:35:29.671Z,23.95
2022-08-11T12:36:29.799Z,23.73
2022-08-11T12:37:29.924Z,22.58
2022-08-11T12:38:30.137Z,23.22
2022-08-11T12:40:16.575Z,23.27
2022-08-11T12:40:43.782Z,23.26
2022-08-11T12:41:31.487Z,23.70
2022-08-11T12:42:30.507Z,22.99
2022-08-11T12:43:37.284Z,22.64
2022-08-11T12:44:31.700Z,22.47
2022-08-11T12:45:31.002Z,23.21
2022-08-11T12:46:30.940Z,21.98
2022-08-11T12:47:31.090Z,22.37
2022-08-11T12:48:57.580Z,22.94
2022-08-11T12:49:32.330Z,24.71
2022-08-11T12:50:31.598Z,22.44
2022-08-11T12:51:31.542Z,23.65
2022-08-11T12:52:32.672Z,23.78
2022-08-11T12:53:31.768Z,24.45
2022-08-11T12:54:31.881Z,22.26
2022-08-11T12:55:32.080Z,22.11
2022-08-11T12:56:32.108Z,23.60